This is the latest recevied weather packets stored in our database for station/object PY2FLB-13. If no packets are shown the sender has not sent any weather packets the latest 1 day(s).
| Time | Temp. | Humidity | Pressure | Rain* | Wind** | Luminosity | Snow |
|---|---|---|---|---|---|---|---|
| 1778086070 | 30° C | 31% | 1015.1 hPa | - | - | - | - |
| 1778083970 | 29.44° C | 34% | 1015.7 hPa | - | - | - | - |
| 1778079470 | 28.33° C | 39% | 1017.2 hPa | - | - | - | - |
| 1778078569 | 28.33° C | 40% | 1017.4 hPa | - | - | - | - |
| 1778077670 | 27.78° C | 42% | 1017.7 hPa | - | - | - | - |
| 1778076769 | 27.22° C | 45% | 1018 hPa | - | - | - | - |
| 1778076469 | 27.22° C | 46% | 1018.1 hPa | - | - | - | - |
| 1778073769 | 26.67° C | 49% | 1018.4 hPa | - | - | - | - |
| 1778072869 | 26.11° C | 51% | 1018.8 hPa | - | - | - | - |
| 1778071669 | 25.56° C | 52% | 1019 hPa | - | - | - | - |
| 1778071370 | 25° C | 52% | 1019 hPa | - | - | - | - |
| 1778067169 | 23.33° C | 56% | 1019.1 hPa | - | - | - | - |
| 1778066569 | 22.78° C | 56% | 1019 hPa | - | - | - | - |
| 1778062669 | 22.22° C | 59% | 1018.9 hPa | - | - | - | - |
| 1778062369 | 21.67° C | 60% | 1019 hPa | - | - | - | - |
| 1778061469 | 22.22° C | 59% | 1018.7 hPa | - | - | - | - |
| 1778061169 | 21.67° C | 61% | 1018.9 hPa | - | - | - | - |
| 1778060569 | 22.22° C | 59% | 1018.5 hPa | - | - | - | - |
| 1778060269 | 22.22° C | 59% | 1018.5 hPa | - | - | - | - |
| 1778058769 | 22.22° C | 58% | 1017.8 hPa | - | - | - | - |
| 1778058169 | 21.67° C | 60% | 1017.9 hPa | - | - | - | - |
| 1778057270 | 21.67° C | 59% | 1017.6 hPa | - | - | - | - |
| 1778056970 | 21.67° C | 60% | 1017.6 hPa | - | - | - | - |
| 1778056669 | 22.22° C | 59% | 1017.5 hPa | - | - | - | - |
| 1778056369 | 22.22° C | 58% | 1017.3 hPa | - | - | - | - |
* Rain since midnight (hover to see other rain measurements)
** Current wind speed in m/s (hover to see current wind gust speed)